Taurus, New Jersey
Current Conditions -  °F | °C
As of 1:51 AM on Sunday 26 Oct 2014 (Local Time) from KNYC Reporting Station
Overcast Overcast  
Wind Chill: 58°   Ceiling: 11000
Heat Index: 58°   Visibility: 10mi
Dew Point: 48°   Wind: 7mph
Humidity: 70%   Direction: NA
Pressure: 29.58"   Gusts: NA
Location:  40.7879°N, 74.0112°W
Report Text: KNYC 260551Z AUTO VRB06KT 10SM SCT070 OVC110 14/09 A2958 RMK AO2 RAE10 SLP008 P0001 60001 T01440089 10183 20144 56010 $
Loading
Personal Weather Stations






























Interactive Weather Map
Tropical Storm Tracking
New forecast layout! Learn more

10-Day Weather Forecast

Advertisements
Track Severe Weather on mobile